• Join FlightAware (Why Join?)
  • Login
  • US Flag 
12:06PM EDT


 

Airport Tracker/Info


-or-


 

Live Flight TrackerFlight Track Log ✈ CJT574 ✈ 05-Jul-2013 ✈ CYWG - CYHM

Flight Track Log - Related Links

Times and Time Zones

All times are in EDT time to prevent confusion due to time zone crossing. See the CJT574 flight status page for this flight to view local times or setup timezone preferences in your user account.

Time Position Orientation Groundspeed Altitude Reporting Facility
EDT Latitude Longitude Course Direction KTS MPH feet Rate Location/Type
01:58AM 49.9667 -97.2333 360° North 160 184 3,500  Level Winnipeg Center
01:59AM 50.0167 -97.2333 360° North 190 219 4,700 1,380 Climbing Winnipeg Center
02:00AM 50.0667 -97.1667 41° Northeast 250 288 6,300 1,620 Climbing Winnipeg Center
02:01AM 50.0333 -97.0667 117° Southeast 290 334 8,000 2,100 Climbing Winnipeg Center
02:02AM 49.7670 -96.1436 102° East  Level FlightAware Approximate
02:02AM 50.0000 -96.9333 111° Southeast 290 334 10,500  Level Winnipeg Center
02:03AM 49.9667 -96.8167 114° Southeast 330 380 12,100 1,500 Climbing Winnipeg Center
02:04AM 49.9333 -96.6833 111° Southeast 370 426 13,500 1,500 Climbing Winnipeg Center
02:05AM 49.8833 -96.5167 115° Southeast 400 460 15,100 1,740 Climbing Winnipeg Center
02:06AM 49.8333 -96.3667 117° Southeast 400 460 17,000 1,860 Climbing Winnipeg Center
02:07AM 49.7833 -96.1833 113° Southeast 420 483 18,900 1,500 Climbing Winnipeg Center
02:08AM 49.7167 -96.0333 124° Southeast 430 495 20,000 1,320 Climbing Winnipeg Center
02:09AM 49.6833 -95.8500 106° East 440 506 21,600 1,440 Climbing Winnipeg Center
02:10AM 49.6167 -95.6667 119° Southeast 450 518 22,900 1,260 Climbing Winnipeg Center
02:11AM 49.5833 -95.5000 107° East 450 518 24,200 1,200 Climbing Winnipeg Center
02:12AM 49.5167 -95.3167 119° Southeast 470 541 25,300 1,200 Climbing Winnipeg Center
02:13AM 49.4667 -95.1333 113° Southeast 480 552 26,700 1,200 Climbing Winnipeg Center
02:14AM 49.4167 -94.9333 111° Southeast 480 552 27,800 1,020 Climbing Winnipeg Center
02:15AM 49.3333 -94.7667 127° Southeast 490 564 28,800 1,140 Climbing Winnipeg Center
02:16AM 49.2833 -94.5500 109° East 500 575 30,100 1,200 Climbing Winnipeg Center
02:17AM 49.2333 -94.3833 115° Southeast 500 575 31,200 1,380 Climbing Winnipeg Center
02:18AM 49.1833 -94.1833 111° Southeast 490 564 32,900 1,260 Climbing Winnipeg Center
02:19AM 49.1000 -94.0000 125° Southeast 490 564 33,800 840 Climbing Winnipeg Center
02:20AM 49.0500 -93.8000 111° Southeast 490 564 34,600 540 Climbing Winnipeg Center
02:21AM 49.0000 -93.6333 115° Southeast 490 564 34,900 180 Climbing Winnipeg Center
02:22AM 48.9167 -93.4333 122° Southeast 510 587 35,000  Climbing Winnipeg Center
02:23AM 48.8667 -93.2333 111° Southeast 510 587 35,000  Level Winnipeg Center
02:24AM 48.8344 -93.1247 114° Southeast 513 590 35,000  Level Minneapolis Center
02:25AM 48.7711 -92.9325 117° Southeast 513 590 35,000 -60 Level Minneapolis Center
02:26AM 48.7067 -92.7428 117° Southeast 511 588 34,900  Descending Minneapolis Center
02:27AM 48.6417 -92.5519 117° Southeast 510 587 35,000  Climbing Minneapolis Center
02:28AM 48.5792 -92.3647 117° Southeast 505 581 34,900  Descending Minneapolis Center
02:29AM 48.5158 -92.1797 117° Southeast 499 574 35,000  Climbing Minneapolis Center
02:30AM 48.4522 -91.9942 117° Southeast 498 573 35,000  Level Minneapolis Center
02:31AM 48.3864 -91.8097 118° Southeast 500 575 35,000  Level Minneapolis Center
02:32AM 48.2667 -91.5333 123° Southeast 480 552 35,000  Level Winnipeg Center
02:33AM 48.2586 -91.4436 98° East 496 571 35,000  Level Minneapolis Center
02:34AM 48.1936 -91.2622 118° Southeast 494 568 35,000  Level Minneapolis Center
02:35AM 48.1300 -91.0861 118° Southeast 492 566 35,000  Level Minneapolis Center
02:36AM 48.0667 -90.9044 117° Southeast 492 566 35,000  Level Minneapolis Center
02:37AM 47.9992 -90.7219 119° Southeast 492 566 35,000  Level Minneapolis Center
02:38AM 47.9339 -90.5439 119° Southeast 490 564 35,000 -60 Level Minneapolis Center
02:39AM 47.8686 -90.3667 119° Southeast 489 563 34,900  Descending Minneapolis Center
02:40AM 47.8033 -90.1947 119° Southeast 487 560 35,000  Climbing Minneapolis Center
02:41AM 47.7375 -90.0175 119° Southeast 489 563 35,000  Level Minneapolis Center
02:42AM 47.6719 -89.8417 119° Southeast 486 559 35,000  Level Minneapolis Center
02:43AM 47.6053 -89.6686 120° Southeast 484 557 35,000  Level Minneapolis Center
02:44AM 47.5406 -89.4928 119° Southeast 485 558 35,000  Level Minneapolis Center
02:45AM 47.4733 -89.3253 121° Southeast 479 551 35,000  Level Minneapolis Center
02:46AM 47.4072 -89.1511 119° Southeast 480 552 35,000  Level Minneapolis Center
02:47AM 47.3403 -88.9808 120° Southeast 480 552 35,000  Level Minneapolis Center
02:48AM 47.2725 -88.8072 120° Southeast 486 559 35,000  Level Minneapolis Center
02:49AM 47.2056 -88.6369 120° Southeast 483 556 35,000  Level Minneapolis Center
02:50AM 47.1383 -88.4664 120° Southeast 481 554 35,000  Level Minneapolis Center
02:51AM 47.0703 -88.2981 121° Southeast 479 551 35,000  Level Minneapolis Center
02:52AM 47.0036 -88.1292 120° Southeast 478 550 35,000  Level Minneapolis Center
02:53AM 46.9353 -87.9619 121° Southeast 478 550 35,000  Level Minneapolis Center
02:54AM 46.8681 -87.7956 121° Southeast 476 548 35,000 -60 Level Minneapolis Center
02:55AM 46.8044 -87.6389 121° Southeast 474 545 34,900  Descending Minneapolis Center
02:56AM 46.7361 -87.4744 121° Southeast 473 544 35,000  Climbing Minneapolis Center
02:57AM 46.6681 -87.3086 121° Southeast 477 549 35,000  Level Minneapolis Center
02:58AM 46.5861 -87.1122 121° Southeast 475 547 35,000  Level Minneapolis Center
02:59AM 46.5169 -86.9494 122° Southeast 475 547 35,000  Level Minneapolis Center
03:00AM 46.4486 -86.7861 121° Southeast 473 544 35,000  Level Minneapolis Center
03:01AM 46.3803 -86.6242 121° Southeast 472 543 35,000  Level Minneapolis Center
03:02AM 46.3103 -86.4625 122° Southeast 473 544 35,000 -60 Level Minneapolis Center
03:03AM 46.2414 -86.2997 121° Southeast 474 545 34,900  Descending Minneapolis Center
03:04AM 46.1731 -86.1378 121° Southeast 473 544 35,000  Climbing Minneapolis Center
03:05AM 46.1022 -85.9778 123° Southeast 473 544 35,000  Level Minneapolis Center
03:06AM 46.0319 -85.8167 122° Southeast 475 547 35,000 -60 Level Minneapolis Center
03:07AM 45.9617 -85.6558 122° Southeast 475 547 34,900 -60 Descending Minneapolis Center
03:08AM 45.8911 -85.4983 123° Southeast 470 541 34,900  Level Minneapolis Center
03:09AM 45.8194 -85.3381 123° Southeast 473 544 35,000  Climbing Minneapolis Center
03:10AM 45.7489 -85.1786 122° Southeast 474 545 35,000 -60 Level Minneapolis Center
03:11AM 45.6778 -85.0208 123° Southeast 472 543 34,900 -60 Descending Minneapolis Center
03:12AM 45.6067 -84.8631 123° Southeast 471 542 34,900  Level Minneapolis Center
03:13AM 45.5350 -84.7058 123° Southeast 472 543 35,000  Climbing Minneapolis Center
03:14AM 45.4636 -84.5483 123° Southeast 472 543 35,000  Level Minneapolis Center
03:15AM 45.3917 -84.3928 123° Southeast 472 543 35,000  Level Minneapolis Center
03:16AM 45.3056 -84.2061 123° Southeast 470 541 35,000 -60 Level Minneapolis Center
03:17AM 45.2339 -84.0511 123° Southeast 470 541 34,900  Descending Minneapolis Center
03:18AM 45.1622 -83.8978 124° Southeast 468 539 35,000  Climbing Minneapolis Center
03:19AM 45.0897 -83.7456 124° Southeast 468 539 35,000  Level Minneapolis Center
03:20AM 45.0186 -83.5906 123° Southeast 468 539 35,000  Level Minneapolis Center
03:21AM 44.9467 -83.4392 124° Southeast 467 537 35,000  Level Minneapolis Center
03:22AM 44.8731 -83.2861 124° Southeast 468 539 35,000  Level Minneapolis Center
03:23AM 44.8156 -83.1650 124° Southeast 469 540 35,000  Level Minneapolis Center
03:24AM 44.7269 -82.9828 124° Southeast 468 539 35,000  Level Minneapolis Center
03:25AM 44.6547 -82.8328 124° Southeast 468 539 35,000  Level Minneapolis Center
03:26AM 44.5825 -82.6828 124° Southeast 465 535 35,000 -60 Level Minneapolis Center
03:27AM 44.5092 -82.5308 124° Southeast 469 540 34,900  Descending Minneapolis Center
03:28AM 44.4167 -82.3667 128° Southeast 470 541 35,000  Climbing Toronto Center
03:29AM 44.3333 -82.2167 128° Southeast 470 541 35,000  Level Toronto Center
03:30AM 44.2667 -82.0833 125° Southeast 470 541 35,000  Level Toronto Center
03:31AM 44.2000 -81.9167 119° Southeast 470 541 35,000 -1,140 Level Toronto Center
03:32AM 44.1333 -81.7667 122° Southeast 460 529 32,800 -3,000 Descending Toronto Center
03:33AM 44.0500 -81.6333 131° Southeast 460 529 29,100 -3,600 Descending Toronto Center
03:34AM 43.9667 -81.4833 128° Southeast 470 541 25,600 -3,060 Descending Toronto Center
03:36AM 43.8167 -81.2000 126° Southeast 440 506 20,000 -2,640 Descending Toronto Center
03:37AM 43.7500 -81.0833 128° Southeast 420 483 17,800 -2,280 Descending Toronto Center
03:38AM 43.6667 -80.9667 135° Southeast 400 460 15,500 -2,340 Descending Toronto Center
03:39AM 43.6167 -80.8500 121° Southeast 380 437 13,200 -2,100 Descending Toronto Center
03:40AM 43.5667 -80.7333 121° Southeast 360 414 11,300 -1,440 Descending Toronto Center
03:41AM 43.5167 -80.6500 130° Southeast 330 380 10,400 -1,200 Descending Toronto Center
03:42AM 43.4667 -80.5500 125° Southeast 290 334 9,000 -1,620 Descending Toronto Center
03:43AM 43.4167 -80.4833 136° Southeast 280 322 7,200 -1,800 Descending Toronto Center
03:44AM 43.3667 -80.3833 124° Southeast 280 322 5,500 -1,380 Descending Toronto Center
03:45AM 43.3000 -80.3500 160° South 260 299 4,500 -720 Descending Toronto Center
03:46AM 43.2333 -80.3500 180° South 240 276 4,100 -480 Descending Toronto Center
03:47AM 43.1833 -80.3167 154° Southeast 210 242 3,600 -540 Descending Toronto Center
03:48AM 43.1833 -80.2500 90° East 200 230 3,100 -300 Descending Toronto Center
03:49AM 43.2000 -80.1833 71° East 190 219 3,000 -120 Descending Toronto Center
03:50AM 43.2000 -80.1167 90° East 190 219 2,900 -180 Descending Toronto Center
03:51AM 43.2000 -80.0500 90° East 180 207 2,700 -660 Descending Toronto Center
03:52AM 43.1833 -79.9833 109° East 160 184 1,600 -900 Descending Toronto Center
03:53AM 43.1667 -79.9333 115° Southeast 150 173 900 -720 Descending Toronto Center